createdAt,value
2022-10-31T00:01:59.121Z,21.90
2022-10-31T00:05:01.233Z,22.20
2022-10-31T00:08:02.723Z,22.50
2022-10-31T00:11:04.094Z,22.60
2022-10-31T00:14:06.031Z,22.40
2022-10-31T00:17:07.395Z,22.00
2022-10-31T00:20:10.016Z,22.80
2022-10-31T00:23:12.205Z,22.50
2022-10-31T00:26:17.355Z,22.00
2022-10-31T00:29:18.863Z,22.20
2022-10-31T00:32:20.131Z,22.60
2022-10-31T00:35:22.446Z,22.30
2022-10-31T00:38:23.880Z,22.50
2022-10-31T00:41:25.221Z,22.30
2022-10-31T00:44:26.701Z,22.10
2022-10-31T00:47:27.950Z,22.60
2022-10-31T00:50:29.994Z,22.20
2022-10-31T00:53:35.562Z,22.40
2022-10-31T00:56:37.624Z,22.20
2022-10-31T00:59:39.526Z,22.40
2022-10-31T01:02:41.780Z,21.80
2022-10-31T01:05:45.767Z,22.50
2022-10-31T01:08:47.738Z,22.50
2022-10-31T01:11:50.354Z,22.10
2022-10-31T01:14:51.992Z,22.40
2022-10-31T01:17:53.544Z,22.20
2022-10-31T01:21:00.759Z,22.10
2022-10-31T01:24:02.665Z,22.30
2022-10-31T01:27:06.374Z,22.50
2022-10-31T01:30:09.758Z,22.40
2022-10-31T01:33:11.161Z,22.40
2022-10-31T01:36:14.781Z,22.30
2022-10-31T01:39:17.600Z,22.20
2022-10-31T01:42:20.804Z,22.10
2022-10-31T01:45:22.553Z,22.10
2022-10-31T01:48:31.420Z,22.30
2022-10-31T01:51:37.755Z,22.30
2022-10-31T01:54:46.008Z,22.30
2022-10-31T01:57:54.279Z,22.30
2022-10-31T02:01:01.802Z,22.40
2022-10-31T02:04:07.172Z,22.00
2022-10-31T02:07:13.764Z,22.40
2022-10-31T02:10:15.615Z,22.30
2022-10-31T02:13:19.260Z,22.30
2022-10-31T02:16:23.156Z,22.60
2022-10-31T02:19:34.605Z,22.30
2022-10-31T02:22:48.955Z,22.10
2022-10-31T02:26:16.066Z,22.10
2022-10-31T02:29:44.993Z,22.00
2022-10-31T02:32:55.105Z,22.30
2022-10-31T02:36:05.199Z,22.20
2022-10-31T02:39:13.688Z,22.30
2022-10-31T02:42:27.054Z,22.00
2022-10-31T02:45:33.289Z,22.20
2022-10-31T02:48:40.273Z,22.00
2022-10-31T02:51:42.095Z,22.30
2022-10-31T02:54:46.557Z,22.10
2022-10-31T02:57:50.589Z,22.20
2022-10-31T03:01:09.715Z,22.00
2022-10-31T03:04:29.003Z,22.00
2022-10-31T03:07:40.270Z,22.60
2022-10-31T03:10:47.845Z,22.00
2022-10-31T03:13:55.254Z,22.40
2022-10-31T03:17:04.453Z,22.30
2022-10-31T03:20:10.640Z,22.40
2022-10-31T03:23:15.452Z,21.90
2022-10-31T03:26:17.536Z,21.80
2022-10-31T03:29:23.740Z,22.30
2022-10-31T03:32:33.391Z,22.30
2022-10-31T03:35:39.408Z,22.00
2022-10-31T03:38:42.841Z,22.00
2022-10-31T03:42:00.861Z,22.10
2022-10-31T03:45:08.689Z,22.00
2022-10-31T03:48:10.460Z,21.90
2022-10-31T03:51:19.455Z,22.30
2022-10-31T03:54:27.678Z,22.20
2022-10-31T03:57:35.803Z,21.80
2022-10-31T04:00:46.882Z,22.20
2022-10-31T04:03:49.318Z,22.00
2022-10-31T04:06:52.761Z,21.90
2022-10-31T04:09:56.081Z,22.30
2022-10-31T04:13:02.511Z,22.10
2022-10-31T04:16:14.237Z,22.00
2022-10-31T04:19:18.721Z,22.20
2022-10-31T04:22:20.865Z,22.30
2022-10-31T04:25:22.313Z,22.40
2022-10-31T04:28:24.216Z,22.20
2022-10-31T04:31:29.462Z,21.90
2022-10-31T04:34:31.068Z,22.20
2022-10-31T04:37:33.120Z,22.60
2022-10-31T04:40:36.282Z,22.30
2022-10-31T04:43:55.568Z,21.90
2022-10-31T04:46:56.923Z,22.10
2022-10-31T04:49:58.335Z,21.90
2022-10-31T04:53:00.336Z,21.90
2022-10-31T04:56:06.307Z,22.20
2022-10-31T04:59:15.756Z,22.10
2022-10-31T05:02:24.468Z,22.20
2022-10-31T05:05:31.588Z,22.00
2022-10-31T05:08:36.161Z,22.30
2022-10-31T05:11:40.623Z,21.90
2022-10-31T05:14:56.340Z,21.90
2022-10-31T05:18:17.710Z,22.00
2022-10-31T05:21:35.593Z,21.80
2022-10-31T05:24:38.982Z,22.30
2022-10-31T05:27:41.134Z,22.10
2022-10-31T05:30:42.551Z,21.90
2022-10-31T05:33:47.933Z,22.20
2022-10-31T05:37:08.721Z,22.10
2022-10-31T05:40:12.741Z,21.30
2022-10-31T05:43:14.691Z,22.30
2022-10-31T05:46:16.229Z,22.10
2022-10-31T05:49:35.623Z,22.10
2022-10-31T05:52:41.905Z,22.10
2022-10-31T05:55:59.709Z,22.00
2022-10-31T05:59:01.149Z,22.30
2022-10-31T06:02:02.973Z,22.00
2022-10-31T06:05:24.594Z,21.90
2022-10-31T06:08:27.932Z,22.10
2022-10-31T06:11:31.820Z,21.90
2022-10-31T06:14:53.153Z,22.50
2022-10-31T06:17:58.552Z,22.10
2022-10-31T06:21:01.636Z,22.20
2022-10-31T06:24:04.117Z,22.30
2022-10-31T06:27:26.557Z,22.20
2022-10-31T06:30:28.805Z,21.80
2022-10-31T06:33:30.554Z,22.00
2022-10-31T06:36:38.770Z,21.80
2022-10-31T06:39:41.041Z,21.90
2022-10-31T06:42:45.682Z,22.10
2022-10-31T06:45:47.166Z,22.30
2022-10-31T06:48:57.417Z,22.00
2022-10-31T06:52:16.211Z,22.10
2022-10-31T06:55:17.841Z,21.80
2022-10-31T06:58:19.919Z,22.00
2022-10-31T07:01:23.515Z,22.00
2022-10-31T07:04:25.173Z,21.90
2022-10-31T07:07:26.996Z,22.40
2022-10-31T07:10:35.695Z,22.00
2022-10-31T07:13:41.328Z,21.60
2022-10-31T07:16:42.898Z,22.20
2022-10-31T07:19:51.090Z,21.90
2022-10-31T07:22:53.183Z,22.10
2022-10-31T07:25:56.663Z,22.00
2022-10-31T07:29:05.589Z,21.90
2022-10-31T07:32:07.451Z,22.20
2022-10-31T07:35:14.419Z,21.70
2022-10-31T07:38:28.544Z,22.00
2022-10-31T07:41:30.245Z,22.10
2022-10-31T07:44:32.267Z,22.30
2022-10-31T07:47:54.267Z,22.30
2022-10-31T07:51:15.607Z,22.20
2022-10-31T07:54:35.736Z,22.20
2022-10-31T07:57:37.620Z,22.00
2022-10-31T08:00:42.209Z,22.30
2022-10-31T08:03:44.389Z,22.20
2022-10-31T08:07:05.698Z,22.20
2022-10-31T08:10:10.960Z,22.10
2022-10-31T08:13:14.021Z,22.30
2022-10-31T08:16:19.403Z,21.50
2022-10-31T08:19:28.916Z,22.40
2022-10-31T08:22:30.901Z,22.40
2022-10-31T08:25:38.281Z,22.20
2022-10-31T08:28:40.897Z,22.40
2022-10-31T08:31:43.308Z,22.40
2022-10-31T08:35:05.148Z,22.40
2022-10-31T08:38:25.698Z,22.60
2022-10-31T08:41:27.488Z,22.30
2022-10-31T08:44:29.152Z,22.30
2022-10-31T08:47:31.370Z,22.20
2022-10-31T08:50:35.648Z,22.40
2022-10-31T08:53:37.315Z,22.20
2022-10-31T08:56:58.776Z,22.00
2022-10-31T09:00:18.713Z,22.30
2022-10-31T09:03:41.117Z,22.50
2022-10-31T09:06:50.320Z,22.50
2022-10-31T09:09:57.533Z,22.20
2022-10-31T09:13:00.404Z,22.40
2022-10-31T09:16:15.654Z,22.60
2022-10-31T09:19:18.059Z,22.60
2022-10-31T09:22:21.609Z,22.50
2022-10-31T09:25:23.120Z,22.60
2022-10-31T09:28:36.133Z,22.50
2022-10-31T09:31:45.029Z,22.70
2022-10-31T09:35:00.588Z,22.50
2022-10-31T09:38:05.364Z,22.50
2022-10-31T09:41:19.978Z,22.90
2022-10-31T09:44:31.821Z,22.80
2022-10-31T09:47:47.763Z,22.60
2022-10-31T09:51:09.479Z,22.70
2022-10-31T09:54:26.823Z,22.20
2022-10-31T09:57:31.594Z,22.30
2022-10-31T10:00:34.822Z,22.70
2022-10-31T10:03:41.628Z,22.50
2022-10-31T10:07:12.045Z,22.70
2022-10-31T10:10:46.360Z,22.80
2022-10-31T10:14:18.899Z,22.60
2022-10-31T10:17:33.796Z,22.40
2022-10-31T10:20:41.853Z,22.90
2022-10-31T10:23:57.512Z,22.70
2022-10-31T10:27:10.859Z,22.80
2022-10-31T10:30:16.745Z,22.90
2022-10-31T10:33:24.023Z,22.50
2022-10-31T10:36:32.245Z,22.70
2022-10-31T10:39:39.252Z,22.80
2022-10-31T10:42:56.887Z,22.60
2022-10-31T10:46:32.063Z,22.50
2022-10-31T10:49:40.700Z,22.70
2022-10-31T10:52:51.259Z,23.00
2022-10-31T10:55:58.850Z,23.10
2022-10-31T10:59:00.367Z,23.00
2022-10-31T11:02:04.266Z,22.80
2022-10-31T11:05:18.683Z,23.10
2022-10-31T11:08:28.283Z,22.60
2022-10-31T11:11:31.276Z,22.60
2022-10-31T11:14:36.286Z,23.10
2022-10-31T11:17:40.529Z,22.70
2022-10-31T11:20:52.291Z,22.90
2022-10-31T11:24:03.065Z,23.20
2022-10-31T11:27:21.243Z,23.00
2022-10-31T11:30:22.664Z,22.90
2022-10-31T11:33:27.173Z,23.10
2022-10-31T11:36:32.498Z,23.10
2022-10-31T11:39:42.224Z,22.70
2022-10-31T11:42:44.819Z,23.10
2022-10-31T11:45:47.689Z,23.20
2022-10-31T11:48:51.261Z,23.10
2022-10-31T11:51:58.182Z,23.10
2022-10-31T11:55:03.063Z,22.90
2022-10-31T11:58:19.842Z,22.50
2022-10-31T12:01:25.547Z,22.70
2022-10-31T12:04:37.757Z,23.10
2022-10-31T12:07:39.160Z,22.50
2022-10-31T12:10:45.214Z,23.10
2022-10-31T12:14:03.698Z,23.30
2022-10-31T12:17:13.995Z,23.50
2022-10-31T12:20:24.959Z,22.70
2022-10-31T12:23:38.665Z,22.90
2022-10-31T12:26:48.817Z,22.90
2022-10-31T12:30:07.485Z,22.80
2022-10-31T12:33:24.800Z,22.60
2022-10-31T12:36:39.618Z,23.10
2022-10-31T12:39:47.631Z,22.60
2022-10-31T12:43:02.775Z,22.50
2022-10-31T12:46:10.359Z,22.90
2022-10-31T12:49:27.848Z,22.70
2022-10-31T12:52:39.685Z,22.90
2022-10-31T12:55:53.902Z,22.90
2022-10-31T12:59:01.002Z,23.40
2022-10-31T13:02:13.285Z,23.10
2022-10-31T13:05:19.271Z,23.20
2022-10-31T13:08:27.840Z,23.10
2022-10-31T13:11:32.909Z,23.20
2022-10-31T13:14:39.480Z,22.80
2022-10-31T13:17:45.742Z,23.30
2022-10-31T13:20:54.610Z,23.00
2022-10-31T13:24:00.978Z,23.30
2022-10-31T13:27:11.785Z,23.10
2022-10-31T13:30:17.694Z,23.20
2022-10-31T13:33:25.569Z,23.60
2022-10-31T13:36:34.639Z,23.40
2022-10-31T13:39:51.812Z,23.30
2022-10-31T13:43:00.638Z,23.30
2022-10-31T13:46:02.916Z,23.10
2022-10-31T13:49:19.400Z,23.20
2022-10-31T13:52:26.660Z,23.10
2022-10-31T13:55:37.892Z,23.40
2022-10-31T13:58:43.427Z,23.30
2022-10-31T14:01:51.045Z,23.30
2022-10-31T14:04:57.061Z,23.10
2022-10-31T14:08:03.491Z,23.70
2022-10-31T14:11:08.297Z,23.40
2022-10-31T14:14:12.771Z,23.50
2022-10-31T14:17:20.877Z,23.60
2022-10-31T14:20:33.070Z,23.60
2022-10-31T14:23:40.271Z,23.80
2022-10-31T14:26:52.642Z,23.30
2022-10-31T14:29:55.372Z,23.60
2022-10-31T14:33:00.783Z,23.50
2022-10-31T14:36:09.607Z,23.40
2022-10-31T14:39:18.454Z,23.50
2022-10-31T14:42:35.303Z,23.30
2022-10-31T14:45:49.799Z,23.70
2022-10-31T14:49:08.401Z,23.20
2022-10-31T14:52:14.782Z,23.70
2022-10-31T14:55:18.068Z,23.50
2022-10-31T14:58:22.767Z,23.40
2022-10-31T15:01:29.104Z,23.50
2022-10-31T15:04:32.898Z,23.20
2022-10-31T15:07:37.495Z,23.20
2022-10-31T15:10:46.103Z,23.70
2022-10-31T15:13:49.436Z,23.70
2022-10-31T15:16:52.131Z,23.70
2022-10-31T15:19:54.475Z,23.50
2022-10-31T15:22:58.006Z,23.70
2022-10-31T15:26:01.192Z,23.60
2022-10-31T15:29:05.347Z,23.80
2022-10-31T15:32:21.006Z,23.50
2022-10-31T15:35:25.894Z,23.70
2022-10-31T15:38:29.648Z,23.50
2022-10-31T15:41:36.885Z,23.70
2022-10-31T15:44:42.437Z,23.90
2022-10-31T15:47:47.868Z,23.20
2022-10-31T15:50:52.153Z,23.90
2022-10-31T15:53:55.500Z,23.70
2022-10-31T15:56:57.340Z,23.80
2022-10-31T15:59:59.374Z,23.90
2022-10-31T16:03:05.843Z,23.80
2022-10-31T16:06:21.275Z,23.80
2022-10-31T16:09:24.468Z,23.70
2022-10-31T16:12:31.147Z,23.50
2022-10-31T16:15:33.620Z,23.90
2022-10-31T16:18:38.147Z,23.60
2022-10-31T16:21:42.038Z,23.50
2022-10-31T16:24:48.950Z,23.70
2022-10-31T16:27:54.647Z,23.90
2022-10-31T16:30:57.500Z,23.70
2022-10-31T16:34:14.803Z,23.40
2022-10-31T16:37:16.223Z,23.70
2022-10-31T16:40:18.449Z,24.10
2022-10-31T16:43:22.257Z,23.90
2022-10-31T16:46:25.956Z,23.50
2022-10-31T16:49:27.386Z,23.50
2022-10-31T16:52:37.933Z,23.40
2022-10-31T16:55:47.373Z,23.90
2022-10-31T16:58:48.870Z,23.60
2022-10-31T17:01:50.540Z,23.40
2022-10-31T17:04:55.734Z,23.90
2022-10-31T17:07:59.260Z,23.60
2022-10-31T17:11:03.559Z,23.70
2022-10-31T17:14:06.532Z,23.70
2022-10-31T17:17:11.115Z,23.40
2022-10-31T17:20:19.897Z,23.60
2022-10-31T17:23:21.751Z,23.60
2022-10-31T17:26:24.061Z,23.40
2022-10-31T17:29:25.592Z,23.80
2022-10-31T17:32:27.015Z,23.60
2022-10-31T17:35:29.392Z,23.30
2022-10-31T17:38:31.115Z,23.30
2022-10-31T17:41:33.172Z,23.10
2022-10-31T17:44:35.147Z,23.50
2022-10-31T17:47:37.610Z,23.50
2022-10-31T17:50:39.442Z,23.40
2022-10-31T17:53:42.151Z,23.50
2022-10-31T17:56:44.163Z,23.30
2022-10-31T17:59:45.799Z,23.20
2022-10-31T18:02:47.271Z,23.30
2022-10-31T18:05:57.242Z,23.40
2022-10-31T18:09:02.680Z,23.20
2022-10-31T18:12:05.252Z,23.10
2022-10-31T18:15:07.184Z,23.40
2022-10-31T18:18:08.612Z,23.50
2022-10-31T18:21:09.991Z,23.30
2022-10-31T18:24:11.829Z,23.40
2022-10-31T18:27:13.859Z,23.30
2022-10-31T18:30:15.348Z,23.30
2022-10-31T18:33:16.910Z,23.30
2022-10-31T18:36:18.791Z,23.20
2022-10-31T18:39:20.323Z,22.80
2022-10-31T18:42:22.324Z,23.20
2022-10-31T18:45:41.608Z,22.90
2022-10-31T18:48:45.914Z,23.00
2022-10-31T18:51:47.426Z,23.10
2022-10-31T18:54:48.887Z,23.10
2022-10-31T18:57:50.929Z,23.20
2022-10-31T19:00:52.550Z,24.80
2022-10-31T19:03:55.490Z,22.90
2022-10-31T19:06:57.333Z,22.80
2022-10-31T19:09:58.870Z,23.30
2022-10-31T19:13:01.158Z,22.80
2022-10-31T19:16:05.523Z,22.80
2022-10-31T19:19:08.892Z,22.90
2022-10-31T19:22:10.264Z,22.90
2022-10-31T19:25:11.569Z,23.10
2022-10-31T19:28:13.588Z,22.70
2022-10-31T19:31:15.268Z,23.10
2022-10-31T19:34:16.690Z,23.10
2022-10-31T19:37:18.377Z,23.10
2022-10-31T19:40:19.667Z,22.70
2022-10-31T19:43:21.660Z,22.80
2022-10-31T19:46:40.472Z,22.80
2022-10-31T19:49:45.141Z,22.80
2022-10-31T19:52:46.653Z,23.00
2022-10-31T19:55:48.072Z,23.10
2022-10-31T19:58:49.959Z,22.90
2022-10-31T20:01:51.490Z,22.80
2022-10-31T20:04:52.969Z,22.50
2022-10-31T20:07:58.260Z,22.50
2022-10-31T20:11:01.284Z,22.50
2022-10-31T20:14:05.879Z,22.50
2022-10-31T20:17:08.158Z,22.40
2022-10-31T20:20:10.105Z,23.00
2022-10-31T20:23:11.795Z,22.40
2022-10-31T20:26:14.233Z,22.90
2022-10-31T20:29:16.367Z,23.00
2022-10-31T20:32:18.693Z,22.80
2022-10-31T20:35:20.922Z,22.60
2022-10-31T20:38:22.698Z,22.50
2022-10-31T20:41:24.359Z,22.90
2022-10-31T20:44:26.352Z,22.50
2022-10-31T20:47:27.792Z,22.50
2022-10-31T20:50:29.191Z,22.90
2022-10-31T20:53:32.372Z,22.90
2022-10-31T20:56:33.789Z,23.00
2022-10-31T20:59:35.717Z,22.90
2022-10-31T21:02:40.883Z,22.60
2022-10-31T21:05:42.441Z,22.80
2022-10-31T21:08:43.899Z,22.50
2022-10-31T21:11:45.331Z,22.70
2022-10-31T21:14:47.280Z,22.80
2022-10-31T21:17:48.721Z,23.00
2022-10-31T21:20:49.941Z,22.70
2022-10-31T21:23:54.142Z,22.30
2022-10-31T21:26:55.525Z,22.80
2022-10-31T21:29:57.535Z,22.80
2022-10-31T21:32:59.208Z,22.60
2022-10-31T21:36:00.703Z,22.80
2022-10-31T21:39:03.611Z,22.20
2022-10-31T21:42:05.300Z,22.10
2022-10-31T21:45:08.054Z,22.30
2022-10-31T21:48:09.555Z,22.60
2022-10-31T21:51:13.511Z,22.20
2022-10-31T21:54:29.958Z,22.50
2022-10-31T21:57:32.012Z,22.70
2022-10-31T22:00:34.033Z,22.60
2022-10-31T22:03:36.324Z,22.70
2022-10-31T22:06:38.041Z,22.60
2022-10-31T22:09:41.052Z,22.90
2022-10-31T22:12:43.133Z,22.30
2022-10-31T22:15:45.114Z,22.80
2022-10-31T22:18:50.591Z,22.30
2022-10-31T22:21:51.990Z,22.20
2022-10-31T22:24:53.312Z,22.70
2022-10-31T22:27:54.684Z,22.40
2022-10-31T22:30:56.529Z,22.50
2022-10-31T22:33:58.092Z,22.30
2022-10-31T22:37:01.276Z,22.20
2022-10-31T22:40:03.668Z,22.30
2022-10-31T22:43:05.079Z,22.30
2022-10-31T22:46:11.986Z,22.40
2022-10-31T22:49:14.418Z,22.60
2022-10-31T22:52:15.903Z,22.30
2022-10-31T22:55:17.311Z,22.50
2022-10-31T22:58:18.710Z,22.20
2022-10-31T23:01:21.624Z,22.50
2022-10-31T23:04:23.322Z,22.10
2022-10-31T23:07:25.623Z,22.40
2022-10-31T23:10:33.088Z,22.40
2022-10-31T23:13:50.183Z,22.10
2022-10-31T23:16:53.782Z,21.40
2022-10-31T23:19:55.199Z,22.30
2022-10-31T23:22:56.439Z,22.30
2022-10-31T23:26:12.551Z,22.00
2022-10-31T23:29:13.950Z,22.40
2022-10-31T23:32:19.311Z,22.50
2022-10-31T23:35:20.737Z,22.40
2022-10-31T23:38:22.138Z,22.40
2022-10-31T23:41:23.990Z,22.20
2022-10-31T23:44:25.417Z,22.10
2022-10-31T23:47:27.278Z,22.10
2022-10-31T23:50:28.724Z,21.60
2022-10-31T23:53:30.023Z,22.00
2022-10-31T23:56:31.528Z,21.90
2022-10-31T23:59:32.821Z,21.80
